Time;durP1;ratioP1;P1;durP2;ratioP2;P2;SDS_P1;SDS_P2;PMS_P1;PMS_P2;Temp;Humidity;BMP_temperature;BMP_pressure;BME280_temperature;BME280_humidity;BME280_pressure;Samples;Min_cycle;Max_cycle;Signal;HPM_P1;HPM_P2
2023/08/23 00:01:50;;;;;;;9.63;7.60;;;23.80;99.90;;;;;;5129976;28;20198;-76
2023/08/23 00:04:15;;;;;;;7.50;6.65;;;23.80;99.90;;;;;;5114052;28;20291;-76
2023/08/23 00:06:41;;;;;;;8.07;7.28;;;23.80;99.90;;;;;;5113673;28;20236;-74
2023/08/23 00:09:07;;;;;;;7.93;7.13;;;23.70;99.90;;;;;;5119487;28;20256;-77
2023/08/23 00:11:33;;;;;;;7.90;7.05;;;23.70;99.90;;;;;;5120150;28;20190;-77
2023/08/23 00:13:58;;;;;;;8.18;7.47;;;23.70;99.90;;;;;;5114082;28;20186;-77
2023/08/23 00:16:24;;;;;;;8.25;7.55;;;23.70;99.90;;;;;;5127396;28;20170;-78
2023/08/23 00:18:50;;;;;;;7.47;6.88;;;23.70;99.90;;;;;;5113838;28;20177;-78
2023/08/23 00:21:16;;;;;;;7.75;7.13;;;23.60;99.90;;;;;;5125721;28;20220;-76
2023/08/23 00:23:42;;;;;;;8.85;8.05;;;23.60;99.90;;;;;;5127329;28;20221;-75
2023/08/23 00:26:09;;;;;;;8.38;7.15;;;23.60;99.90;;;;;;5108509;28;20358;-78
2023/08/23 00:28:34;;;;;;;7.88;7.18;;;23.60;99.90;;;;;;5113711;28;20216;-77
2023/08/23 00:31:00;;;;;;;9.70;7.45;;;23.60;99.90;;;;;;5113639;28;20260;-79
2023/08/23 00:33:26;;;;;;;8.35;7.50;;;23.60;99.90;;;;;;5113189;28;20245;-77
2023/08/23 00:35:52;;;;;;;7.85;7.15;;;23.60;99.90;;;;;;5113391;28;20315;-78
2023/08/23 00:38:17;;;;;;;7.75;6.88;;;23.60;99.90;;;;;;5113671;28;20232;-79
2023/08/23 00:40:43;;;;;;;7.22;6.63;;;23.60;99.90;;;;;;5113558;28;20186;-76
2023/08/23 00:43:09;;;;;;;9.15;7.57;;;23.70;99.90;;;;;;5113103;28;20178;-77
2023/08/23 00:45:36;;;;;;;7.72;7.07;;;23.70;99.90;;;;;;5113218;28;20213;-78
2023/08/23 00:48:03;;;;;;;8.00;7.20;;;23.70;99.90;;;;;;5113346;28;20174;-78
2023/08/23 00:50:33;;;;;;;7.80;7.20;;;23.70;99.90;;;;;;5116181;28;20185;-76
2023/08/23 00:52:59;;;;;;;7.95;7.25;;;23.70;99.90;;;;;;5117596;28;20962;-79
2023/08/23 00:55:25;;;;;;;7.70;7.00;;;23.70;99.90;;;;;;5117473;28;20186;-77
2023/08/23 00:57:52;;;;;;;7.68;6.97;;;23.70;99.90;;;;;;5116996;28;20544;-78
2023/08/23 01:00:19;;;;;;;8.38;7.60;;;23.70;99.90;;;;;;5117029;28;20531;-79
2023/08/23 01:02:45;;;;;;;7.85;7.10;;;23.60;99.90;;;;;;5116670;28;20180;-78
2023/08/23 01:05:11;;;;;;;8.00;7.30;;;23.60;99.90;;;;;;5116562;28;20205;-77
2023/08/23 01:07:54;;;;;;;7.50;6.90;;;23.60;99.90;;;;;;5116935;28;20205;-78
2023/08/23 01:10:40;;;;;;;8.07;7.38;;;23.60;99.90;;;;;;5117083;28;20165;-77
2023/08/23 01:13:24;;;;;;;8.55;7.60;;;23.50;99.90;;;;;;5102286;28;20178;-77
2023/08/23 01:15:53;;;;;;;8.02;7.30;;;23.50;99.90;;;;;;5116719;28;20244;-78
2023/08/23 01:18:20;;;;;;;7.80;6.75;;;23.40;99.90;;;;;;5098493;28;20228;-77
2023/08/23 01:20:49;;;;;;;8.38;7.57;;;23.40;99.90;;;;;;5116707;28;20197;-77
2023/08/23 01:23:16;;;;;;;8.30;7.50;;;23.50;99.90;;;;;;5117282;28;20929;-76
2023/08/23 01:25:47;;;;;;;8.15;7.35;;;23.40;99.90;;;;;;5117707;28;20209;-77
2023/08/23 01:28:13;;;;;;;9.23;7.68;;;23.50;99.90;;;;;;5119754;28;20197;-74
2023/08/23 01:30:39;;;;;;;8.52;7.80;;;23.50;99.90;;;;;;5122276;28;20186;-75
2023/08/23 01:33:19;;;;;;;8.20;7.40;;;23.40;99.90;;;;;;5116893;28;20182;-77
2023/08/23 01:36:19;;;;;;;8.32;7.53;;;23.40;99.90;;;;;;5125119;28;20158;-75
2023/08/23 01:38:47;;;;;;;10.02;7.90;;;23.40;99.90;;;;;;5136685;28;20197;-75
2023/08/23 01:41:13;;;;;;;10.98;8.15;;;23.30;99.90;;;;;;5122597;28;20648;-78
2023/08/23 01:43:39;;;;;;;8.10;7.40;;;23.30;99.90;;;;;;5116194;28;20184;-79
2023/08/23 01:46:05;;;;;;;8.45;7.65;;;23.30;99.90;;;;;;5116067;28;20300;-74
2023/08/23 01:48:30;;;;;;;8.35;7.65;;;23.30;99.90;;;;;;5119889;28;20196;-78
2023/08/23 01:50:56;;;;;;;8.43;7.53;;;23.40;99.90;;;;;;5118616;28;20236;-77
2023/08/23 01:53:22;;;;;;;9.93;7.80;;;23.30;99.90;;;;;;5116046;28;20240;-77
2023/08/23 01:55:47;;;;;;;8.50;7.65;;;23.30;99.90;;;;;;5118712;28;20178;-74
2023/08/23 01:58:13;;;;;;;8.18;7.32;;;23.30;99.90;;;;;;5126220;28;20178;-78
2023/08/23 02:00:39;;;;;;;8.00;7.30;;;23.30;99.90;;;;;;5130646;28;20196;-78
2023/08/23 02:03:05;;;;;;;7.93;7.22;;;23.20;99.90;;;;;;5125285;28;20224;-78
2023/08/23 02:05:30;;;;;;;8.93;8.13;;;23.10;99.90;;;;;;5119255;28;20545;-77
2023/08/23 02:07:56;;;;;;;8.45;7.32;;;23.10;99.90;;;;;;5115609;28;20228;-78
2023/08/23 02:10:22;;;;;;;8.93;7.75;;;23.10;99.90;;;;;;5115635;28;20213;-78
2023/08/23 02:12:48;;;;;;;8.55;7.75;;;23.10;99.90;;;;;;5115308;28;20189;-79
2023/08/23 02:15:13;;;;;;;8.30;7.60;;;23.10;99.90;;;;;;5115335;28;20185;-77
2023/08/23 02:17:39;;;;;;;8.38;7.63;;;23.10;99.90;;;;;;5115729;28;20182;-79
2023/08/23 02:20:06;;;;;;;8.48;7.75;;;23.10;99.90;;;;;;5115526;28;20536;-79
2023/08/23 02:22:32;;;;;;;9.05;7.65;;;23.10;99.90;;;;;;5114736;28;20222;-78
2023/08/23 02:24:57;;;;;;;8.38;7.72;;;23.00;99.90;;;;;;5115287;28;20274;-77
2023/08/23 02:27:23;;;;;;;7.50;6.90;;;23.00;99.90;;;;;;5115390;28;20190;-77
2023/08/23 02:29:49;;;;;;;9.83;7.70;;;23.00;99.90;;;;;;5115282;28;20633;-77
2023/08/23 02:32:15;;;;;;;8.73;7.43;;;23.00;99.90;;;;;;5114824;28;20186;-76
2023/08/23 02:34:42;;;;;;;8.17;7.40;;;23.00;99.90;;;;;;5115354;28;20180;-78
2023/08/23 02:37:07;;;;;;;8.67;7.70;;;23.00;99.90;;;;;;5115383;28;20237;-79
2023/08/23 02:39:33;;;;;;;8.70;7.80;;;23.00;99.90;;;;;;5115311;28;20687;-78
2023/08/23 02:41:59;;;;;;;8.80;8.00;;;22.90;99.90;;;;;;5114917;28;20185;-77
2023/08/23 02:44:25;;;;;;;8.00;7.15;;;22.80;99.90;;;;;;5115282;28;20181;-77
2023/08/23 02:46:50;;;;;;;9.10;8.20;;;22.80;99.90;;;;;;5114929;28;20288;-77
2023/08/23 02:49:16;;;;;;;12.17;7.10;;;22.70;99.90;;;;;;5096655;28;20181;-79
2023/08/23 02:51:42;;;;;;;8.87;7.97;;;22.70;99.90;;;;;;5114858;28;20177;-77
2023/08/23 02:54:09;;;;;;;8.40;7.70;;;22.70;99.90;;;;;;5114744;28;20199;-78
2023/08/23 02:56:34;;;;;;;8.57;7.87;;;22.60;99.90;;;;;;5096220;28;20694;-77
2023/08/23 02:59:00;;;;;;;8.37;7.57;;;22.70;99.90;;;;;;5114860;28;20178;-77
2023/08/23 03:01:26;;;;;;;9.53;7.80;;;22.60;99.90;;;;;;5119593;28;20201;-75
2023/08/23 03:03:51;;;;;;;9.07;8.17;;;22.60;99.90;;;;;;5120378;28;20189;-77
2023/08/23 03:06:17;;;;;;;8.30;7.67;;;22.50;99.90;;;;;;5114765;28;20676;-77
2023/08/23 03:08:43;;;;;;;8.43;7.67;;;22.40;99.90;;;;;;5114633;28;20198;-78
2023/08/23 03:11:09;;;;;;;8.67;7.87;;;22.50;99.90;;;;;;5114887;28;20182;-75
2023/08/23 03:13:34;;;;;;;8.55;7.75;;;22.50;99.90;;;;;;5127315;28;20196;-75
2023/08/23 03:16:01;;;;;;;9.35;7.93;;;22.50;99.90;;;;;;5127912;28;20236;-77
2023/08/23 03:18:27;;;;;;;9.30;8.13;;;22.50;99.90;;;;;;5114748;28;20174;-78
2023/08/23 03:20:52;;;;;;;9.50;8.17;;;22.50;99.90;;;;;;5115199;28;20706;-77
2023/08/23 03:23:19;;;;;;;8.83;7.93;;;22.50;99.90;;;;;;5115587;28;20721;-77
2023/08/23 03:25:49;;;;;;;8.73;7.88;;;22.50;99.90;;;;;;5097550;28;20277;-77
2023/08/23 03:28:15;;;;;;;8.93;8.03;;;22.50;99.90;;;;;;5116729;28;20510;-76
2023/08/23 03:30:41;;;;;;;8.20;7.50;;;22.50;99.90;;;;;;5120230;28;20636;-73
2023/08/23 03:33:07;;;;;;;8.47;7.70;;;22.40;99.90;;;;;;5120060;28;20174;-75
2023/08/23 03:35:34;;;;;;;8.13;7.43;;;22.50;99.90;;;;;;5128049;28;20632;-77
2023/08/23 03:38:00;;;;;;;9.07;7.87;;;22.40;99.90;;;;;;5127055;28;20184;-77
2023/08/23 03:40:26;;;;;;;8.90;8.07;;;22.50;99.90;;;;;;5131368;28;20679;-78
2023/08/23 03:42:51;;;;;;;9.67;8.07;;;22.40;99.90;;;;;;5114036;28;20178;-76
2023/08/23 03:45:18;;;;;;;8.00;7.40;;;22.40;99.90;;;;;;5114079;28;20556;-77
2023/08/23 03:47:44;;;;;;;8.50;7.80;;;22.40;99.90;;;;;;5113908;28;20205;-78
2023/08/23 03:50:11;;;;;;;8.43;7.63;;;22.30;99.90;;;;;;5114357;28;20230;-77
2023/08/23 03:52:37;;;;;;;11.60;8.13;;;22.30;99.90;;;;;;5117988;28;20203;-78
2023/08/23 03:55:03;;;;;;;8.43;7.63;;;22.40;99.90;;;;;;5126168;28;20178;-76
2023/08/23 03:57:29;;;;;;;8.67;7.63;;;22.40;99.90;;;;;;5115767;28;20225;-78
2023/08/23 03:59:55;;;;;;;8.50;7.67;;;22.40;99.90;;;;;;5114082;28;20257;-76
2023/08/23 04:02:21;;;;;;;9.83;7.60;;;22.50;99.90;;;;;;5113895;28;20181;-77
2023/08/23 04:04:47;;;;;;;8.00;7.30;;;22.50;99.90;;;;;;5098046;28;20189;-76
2023/08/23 04:07:14;;;;;;;8.30;7.70;;;22.50;99.90;;;;;;5117041;28;20197;-76
2023/08/23 04:09:40;;;;;;;9.07;8.27;;;22.40;99.90;;;;;;5115955;28;20177;-77
2023/08/23 04:12:07;;;;;;;9.23;8.20;;;22.40;99.90;;;;;;5114730;28;20189;-77
2023/08/23 04:14:33;;;;;;;9.23;8.33;;;22.40;99.90;;;;;;5113925;28;20170;-77
2023/08/23 04:16:59;;;;;;;9.10;8.20;;;22.40;99.90;;;;;;5113809;28;20173;-77
2023/08/23 04:19:26;;;;;;;9.47;8.57;;;22.30;99.90;;;;;;5113931;28;20188;-77
2023/08/23 04:21:51;;;;;;;8.80;8.00;;;22.30;99.90;;;;;;5115784;28;20217;-78
2023/08/23 04:24:17;;;;;;;10.45;8.05;;;22.30;99.90;;;;;;5115492;28;20189;-76
2023/08/23 04:26:43;;;;;;;8.98;8.13;;;22.30;99.90;;;;;;5129894;28;20216;-77
2023/08/23 04:29:09;;;;;;;9.93;7.93;;;22.30;99.90;;;;;;5118843;28;20182;-75
2023/08/23 04:31:35;;;;;;;9.07;7.67;;;22.30;99.90;;;;;;5119102;28;20201;-77
2023/08/23 04:34:02;;;;;;;9.63;8.63;;;22.30;99.90;;;;;;5117144;28;20533;-77
2023/08/23 04:36:28;;;;;;;8.40;7.60;;;22.30;99.90;;;;;;5117956;28;20189;-74
2023/08/23 04:38:54;;;;;;;8.53;7.73;;;22.40;99.90;;;;;;5117851;28;20190;-74
2023/08/23 04:41:20;;;;;;;8.83;7.93;;;22.40;99.90;;;;;;5105760;28;20196;-77
2023/08/23 04:43:46;;;;;;;7.85;7.15;;;22.40;99.90;;;;;;5113128;28;20193;-77
2023/08/23 04:46:11;;;;;;;10.40;8.17;;;22.50;99.90;;;;;;5130441;28;20265;-77
2023/08/23 04:48:37;;;;;;;11.00;8.57;;;22.50;99.90;;;;;;5117481;28;20548;-77
2023/08/23 04:51:08;;;;;;;8.67;7.87;;;22.40;99.90;;;;;;5117118;28;20186;-78
2023/08/23 04:53:35;;;;;;;8.50;7.70;;;22.40;99.90;;;;;;5118220;28;20200;-77
2023/08/23 04:56:01;;;;;;;8.73;7.93;;;22.50;99.90;;;;;;5136740;27;20173;-75
2023/08/23 04:58:31;;;;;;;10.70;8.20;;;22.50;99.90;;;;;;5137616;27;20216;-74
2023/08/23 05:01:04;;;;;;;8.83;7.80;;;22.50;99.90;;;;;;5134858;28;20186;-75
2023/08/23 05:03:34;;;;;;;8.70;7.90;;;22.50;99.90;;;;;;5126906;28;20176;-76
2023/08/23 05:06:01;;;;;;;8.63;7.83;;;22.60;99.90;;;;;;5122510;28;20229;-76
2023/08/23 05:08:28;;;;;;;11.00;8.10;;;22.70;99.90;;;;;;5117801;28;20181;-75
2023/08/23 05:10:55;;;;;;;10.30;8.90;;;22.70;99.90;;;;;;5117286;28;20213;-77
2023/08/23 05:13:22;;;;;;;13.27;8.17;;;22.80;99.90;;;;;;5121043;28;20178;-77
2023/08/23 05:15:55;;;;;;;9.90;8.33;;;22.90;99.90;;;;;;5118424;28;20182;-78
2023/08/23 05:18:22;;;;;;;8.67;7.97;;;22.90;99.90;;;;;;5122973;28;20265;-78
2023/08/23 05:20:53;;;;;;;8.57;7.87;;;23.00;99.90;;;;;;5135171;28;20190;-78
2023/08/23 05:23:19;;;;;;;9.83;7.97;;;23.10;99.90;;;;;;5117988;28;20174;-76
2023/08/23 05:25:45;;;;;;;8.23;7.50;;;23.20;99.90;;;;;;5116477;28;20224;-78
2023/08/23 05:28:10;;;;;;;8.70;7.80;;;23.20;99.90;;;;;;5117455;28;20656;-75
2023/08/23 05:30:39;;;;;;;9.03;8.13;;;23.30;99.90;;;;;;5115456;28;20186;-78
2023/08/23 05:33:06;;;;;;;9.23;8.00;;;23.30;99.90;;;;;;5116208;28;20185;-77
2023/08/23 05:35:33;;;;;;;12.67;8.40;;;23.30;99.90;;;;;;5115673;28;20243;-77
2023/08/23 05:37:58;;;;;;;9.63;7.85;;;23.40;99.90;;;;;;5116515;28;20173;-76
2023/08/23 05:40:24;;;;;;;8.93;8.05;;;23.50;99.90;;;;;;5116294;28;20181;-77
2023/08/23 05:42:50;;;;;;;10.33;8.17;;;23.50;99.90;;;;;;5115510;28;20228;-77
2023/08/23 05:45:17;;;;;;;8.93;8.02;;;23.50;99.90;;;;;;5115805;28;20205;-78
2023/08/23 05:47:43;;;;;;;9.40;7.82;;;23.50;99.90;;;;;;5115890;28;20331;-75
2023/08/23 05:50:09;;;;;;;9.02;7.65;;;23.60;99.90;;;;;;5123965;28;20209;-77
2023/08/23 05:52:35;;;;;;;8.27;7.55;;;23.70;99.90;;;;;;5121849;28;20182;-76
2023/08/23 05:55:00;;;;;;;11.32;8.45;;;23.80;99.90;;;;;;5116356;28;20271;-77
2023/08/23 05:57:26;;;;;;;11.85;7.93;;;23.90;99.90;;;;;;5115696;28;20174;-78
2023/08/23 05:59:52;;;;;;;10.52;8.80;;;23.90;99.90;;;;;;5115756;28;20589;-78
2023/08/23 06:02:18;;;;;;;8.68;7.88;;;23.90;99.90;;;;;;5115689;28;20231;-79
2023/08/23 06:04:45;;;;;;;9.15;7.90;;;23.90;99.90;;;;;;5115783;28;20710;-76
2023/08/23 06:07:10;;;;;;;12.13;7.93;;;24.00;99.90;;;;;;5116245;28;20224;-78
2023/08/23 06:09:37;;;;;;;9.18;8.27;;;24.00;99.90;;;;;;5116317;28;20545;-78
2023/08/23 06:12:04;;;;;;;9.63;7.78;;;24.10;99.90;;;;;;5115398;28;20209;-76
2023/08/23 06:14:30;;;;;;;10.35;8.00;;;24.20;99.90;;;;;;5116154;28;20170;-76
2023/08/23 06:16:55;;;;;;;10.05;8.63;;;24.10;99.90;;;;;;5118607;28;20177;-75
2023/08/23 06:19:21;;;;;;;9.05;8.15;;;24.10;99.90;;;;;;5121210;28;20186;-76
2023/08/23 06:21:47;;;;;;;8.82;8.02;;;24.10;99.90;;;;;;5117446;28;20248;-78
2023/08/23 06:24:13;;;;;;;14.32;8.73;;;24.10;99.90;;;;;;5115307;28;20579;-79
2023/08/23 06:26:39;;;;;;;9.38;8.00;;;24.20;99.90;;;;;;5115342;28;20205;-77
2023/08/23 06:29:04;;;;;;;10.20;8.38;;;24.20;99.90;;;;;;5115180;28;20219;-78
2023/08/23 06:31:30;;;;;;;8.30;7.20;;;24.30;99.90;;;;;;5115384;28;20215;-75
2023/08/23 06:33:56;;;;;;;9.88;7.50;;;24.40;99.90;;;;;;5114802;28;20532;-78
2023/08/23 06:36:22;;;;;;;9.05;8.02;;;24.50;99.90;;;;;;5115117;28;20556;-76
2023/08/23 06:38:48;;;;;;;8.82;7.93;;;24.50;99.90;;;;;;5115489;28;20177;-75
2023/08/23 06:41:13;;;;;;;11.50;7.80;;;24.60;99.90;;;;;;5115512;28;20178;-75
2023/08/23 06:43:39;;;;;;;8.65;7.82;;;24.60;99.90;;;;;;5120755;28;20200;-76
2023/08/23 06:46:05;;;;;;;10.32;8.00;;;24.70;99.90;;;;;;5115288;28;20235;-79
2023/08/23 06:48:31;;;;;;;8.38;7.57;;;24.70;99.90;;;;;;5121920;28;20197;-77
2023/08/23 06:51:01;;;;;;;8.25;7.55;;;24.70;99.90;;;;;;5125204;28;20664;-77
2023/08/23 06:53:28;;;;;;;10.63;8.20;;;24.80;99.90;;;;;;5119656;28;20166;-78
2023/08/23 06:55:54;;;;;;;9.07;8.02;;;24.80;99.90;;;;;;5121896;28;20219;-76
2023/08/23 06:58:29;;;;;;;8.25;7.43;;;24.70;99.90;;;;;;5116015;28;20248;-77
2023/08/23 07:00:57;;;;;;;9.25;7.88;;;24.70;99.90;;;;;;5097183;28;20277;-78
2023/08/23 07:03:23;;;;;;;9.57;7.85;;;24.80;99.90;;;;;;5096881;28;20178;-77
2023/08/23 07:05:48;;;;;;;9.55;7.25;;;24.90;99.90;;;;;;5115040;28;20603;-75
2023/08/23 07:08:14;;;;;;;8.77;7.80;;;24.90;99.90;;;;;;5115372;28;20177;-76
2023/08/23 07:10:40;;;;;;;9.32;7.50;;;25.10;99.90;;;;;;5119149;28;20587;-76
2023/08/23 07:13:06;;;;;;;8.85;8.00;;;25.20;99.90;;;;;;5136087;28;20219;-78
2023/08/23 07:15:35;;;;;;;9.05;7.43;;;25.30;99.90;;;;;;5119461;28;20230;-77
2023/08/23 07:18:01;;;;;;;9.55;7.82;;;25.40;99.90;;;;;;5097120;28;20231;-78
2023/08/23 07:20:27;;;;;;;10.75;7.82;;;25.40;99.90;;;;;;5114236;28;20641;-76
2023/08/23 07:22:53;;;;;;;9.68;8.30;;;25.40;99.90;;;;;;5128274;28;20213;-76
2023/08/23 07:25:18;;;;;;;13.02;7.90;;;25.40;99.90;;;;;;5106890;28;20217;-78
2023/08/23 07:27:44;;;;;;;9.23;8.43;;;25.40;99.90;;;;;;5115623;28;20191;-77
2023/08/23 07:30:11;;;;;;;7.72;7.13;;;25.40;99.90;;;;;;5115254;28;20178;-75
2023/08/23 07:32:37;;;;;;;9.70;8.00;;;25.50;99.90;;;;;;5114966;28;20210;-76
2023/08/23 07:35:03;;;;;;;8.63;7.72;;;25.50;99.90;;;;;;5121000;28;20589;-77
2023/08/23 07:37:29;;;;;;;8.73;7.93;;;25.60;99.90;;;;;;5123317;28;20177;-75
2023/08/23 07:39:55;;;;;;;8.82;8.02;;;25.70;99.90;;;;;;5114483;28;20590;-78
2023/08/23 07:42:21;;;;;;;8.10;7.32;;;25.70;99.90;;;;;;5114266;28;20681;-77
2023/08/23 07:44:47;;;;;;;9.70;7.78;;;25.70;99.90;;;;;;5095909;28;20181;-76
2023/08/23 07:47:13;;;;;;;8.20;7.50;;;25.90;99.90;;;;;;5114185;28;20182;-75
2023/08/23 07:49:39;;;;;;;8.43;7.63;;;25.90;99.90;;;;;;5114134;28;20208;-78
2023/08/23 07:52:05;;;;;;;8.52;7.68;;;26.00;99.90;;;;;;5114312;28;20250;-79
2023/08/23 07:54:30;;;;;;;8.15;7.45;;;26.10;99.90;;;;;;5113568;28;20314;-80
2023/08/23 07:56:56;;;;;;;9.15;8.10;;;26.30;99.90;;;;;;5114050;28;20243;-78
2023/08/23 07:59:22;;;;;;;8.65;7.90;;;26.50;99.90;;;;;;5116458;28;20269;-78
2023/08/23 08:01:48;;;;;;;8.98;8.18;;;26.60;99.90;;;;;;5117886;28;20177;-78
2023/08/23 08:04:14;;;;;;;10.40;7.80;;;26.50;99.90;;;;;;5117725;28;20201;-79
2023/08/23 08:06:40;;;;;;;8.63;7.88;;;26.50;99.90;;;;;;5099867;28;20213;-76
2023/08/23 08:09:06;;;;;;;8.85;8.02;;;26.50;99.90;;;;;;5118100;28;20266;-78
2023/08/23 08:11:31;;;;;;;8.32;7.63;;;26.60;99.90;;;;;;5117891;28;20242;-78
2023/08/23 08:13:57;;;;;;;8.00;7.30;;;26.70;99.90;;;;;;5117574;28;20174;-77
2023/08/23 08:16:23;;;;;;;8.27;7.55;;;26.70;99.90;;;;;;5118465;28;20252;-76
2023/08/23 08:18:49;;;;;;;8.23;7.53;;;26.80;99.90;;;;;;5119120;28;20216;-76
2023/08/23 08:21:15;;;;;;;11.35;7.93;;;26.90;99.90;;;;;;5121848;28;20225;-76
2023/08/23 08:23:41;;;;;;;10.25;8.30;;;26.90;99.90;;;;;;5118950;28;20188;-78
2023/08/23 08:26:06;;;;;;;9.90;7.30;;;26.90;99.90;;;;;;5119575;28;20567;-75
2023/08/23 08:28:33;;;;;;;8.35;7.65;;;27.00;99.90;;;;;;5121987;28;20182;-78
2023/08/23 08:30:59;;;;;;;8.23;7.47;;;27.20;99.90;;;;;;5119419;28;20174;-79
2023/08/23 08:33:24;;;;;;;8.38;7.65;;;27.20;99.90;;;;;;5119808;28;20181;-77
2023/08/23 08:35:50;;;;;;;8.15;7.15;;;27.30;99.90;;;;;;5124285;28;20481;-80
2023/08/23 08:38:16;;;;;;;8.95;8.18;;;27.40;99.90;;;;;;5120689;28;20652;-78
2023/08/23 08:40:42;;;;;;;10.68;7.80;;;27.50;99.90;;;;;;5118413;28;20462;-76
2023/08/23 08:43:08;;;;;;;8.15;7.45;;;27.60;99.90;;;;;;5099142;28;20186;-78
2023/08/23 08:45:34;;;;;;;8.00;7.30;;;27.70;99.90;;;;;;5099216;28;20209;-79
2023/08/23 08:48:00;;;;;;;8.32;7.38;;;27.90;99.90;;;;;;5098852;28;20635;-78
2023/08/23 08:50:34;;;;;;;8.63;7.68;;;28.00;99.90;;;;;;5117326;28;20253;-79
2023/08/23 08:53:05;;;;;;;9.95;7.70;;;28.10;99.90;;;;;;5116938;28;20177;-76
2023/08/23 08:55:31;;;;;;;8.23;7.50;;;28.30;99.90;;;;;;5117494;28;20625;-77
2023/08/23 08:57:59;;;;;;;9.90;7.78;;;28.40;99.90;;;;;;5117276;28;20181;-77
2023/08/23 09:00:26;;;;;;;8.25;7.53;;;28.50;99.90;;;;;;5117848;28;20185;-77
2023/08/23 09:02:54;;;;;;;8.30;7.50;;;28.50;99.90;;;;;;5118305;28;20178;-79
2023/08/23 09:05:21;;;;;;;7.53;6.90;;;28.60;99.90;;;;;;5135723;28;20205;-77
2023/08/23 09:07:47;;;;;;;7.72;6.90;;;28.70;99.90;;;;;;5125820;28;20196;-76
2023/08/23 09:10:14;;;;;;;7.90;6.75;;;28.80;99.90;;;;;;5116574;28;20198;-77
2023/08/23 09:12:40;;;;;;;7.75;7.05;;;28.80;99.90;;;;;;5116482;28;20227;-76
2023/08/23 09:15:06;;;;;;;11.40;7.78;;;28.80;99.90;;;;;;5116612;28;20178;-76
2023/08/23 09:17:36;;;;;;;7.72;7.13;;;28.90;99.90;;;;;;5116644;28;20170;-77
2023/08/23 09:20:06;;;;;;;7.75;7.05;;;28.90;99.90;;;;;;5116420;28;20181;-77
2023/08/23 09:22:33;;;;;;;8.32;7.53;;;29.00;99.90;;;;;;5094664;28;20226;-76
2023/08/23 09:25:03;;;;;;;8.02;7.03;;;29.10;99.90;;;;;;5094628;28;20717;-77
2023/08/23 09:27:29;;;;;;;8.55;7.75;;;29.20;99.90;;;;;;5096371;28;20187;-77
2023/08/23 09:30:01;;;;;;;8.00;6.97;;;29.20;99.90;;;;;;5096237;28;20185;-78
2023/08/23 09:32:27;;;;;;;9.32;7.18;;;29.20;99.90;;;;;;5096146;28;20166;-75
2023/08/23 09:34:53;;;;;;;8.18;6.80;;;29.30;99.90;;;;;;5096065;28;20170;-76
2023/08/23 09:37:19;;;;;;;7.65;6.90;;;29.40;99.90;;;;;;5096053;28;20528;-76
2023/08/23 09:39:45;;;;;;;7.68;6.97;;;29.50;99.90;;;;;;5094566;28;20229;-78
2023/08/23 09:42:14;;;;;;;8.77;7.55;;;29.50;99.90;;;;;;5096406;28;20187;-76
2023/08/23 09:44:43;;;;;;;7.65;7.05;;;29.50;99.90;;;;;;5097693;28;20185;-78
2023/08/23 09:47:16;;;;;;;9.80;7.68;;;29.60;99.90;;;;;;5098646;28;20573;-77
2023/08/23 09:49:44;;;;;;;7.47;6.78;;;29.60;99.90;;;;;;5096895;28;20163;-76
2023/08/23 09:52:11;;;;;;;7.32;6.65;;;29.60;99.90;;;;;;5095398;28;20249;-77
2023/08/23 09:55:16;;;;;;;6.78;6.22;;;29.60;99.90;;;;;;5095337;28;20180;-77
2023/08/23 09:57:42;;;;;;;7.85;7.25;;;29.70;99.90;;;;;;5033267;28;20187;-76
2023/08/23 10:00:09;;;;;;;7.30;6.70;;;29.80;99.90;;;;;;5033587;28;20188;-78
2023/08/23 10:02:41;;;;;;;7.78;6.82;;;29.80;99.90;;;;;;5034310;28;20191;-76
2023/08/23 10:05:11;;;;;;;7.70;6.97;;;29.90;99.90;;;;;;5033787;28;20177;-76
2023/08/23 10:07:40;;;;;;;8.00;7.22;;;29.90;99.90;;;;;;5033496;28;20177;-77
2023/08/23 10:10:06;;;;;;;8.73;7.82;;;30.00;99.90;;;;;;5034364;28;20222;-76
2023/08/23 10:12:36;;;;;;;8.32;7.53;;;30.00;99.90;;;;;;5036159;28;20196;-77
2023/08/23 10:15:03;;;;;;;8.57;7.68;;;30.00;99.90;;;;;;5033918;28;20189;-76
2023/08/23 10:17:30;;;;;;;8.10;7.30;;;30.00;99.90;;;;;;5038767;28;20184;-76
2023/08/23 10:19:57;;;;;;;9.05;8.25;;;30.10;99.90;;;;;;5037848;28;20234;-77
2023/08/23 10:22:24;;;;;;;8.80;8.00;;;30.20;99.90;;;;;;5033358;28;20739;-79
2023/08/23 10:24:50;;;;;;;8.13;7.47;;;30.20;99.90;;;;;;5035485;28;20219;-76
2023/08/23 10:27:17;;;;;;;8.52;7.78;;;30.30;99.90;;;;;;5034390;28;20224;-76
2023/08/23 10:29:48;;;;;;;8.32;7.68;;;30.30;99.90;;;;;;5095780;28;20202;-78
2023/08/23 10:32:15;;;;;;;7.72;7.05;;;30.40;99.90;;;;;;5108060;28;20189;-75
2023/08/23 10:34:41;;;;;;;7.85;7.15;;;30.50;99.90;;;;;;5112231;28;20162;-77
2023/08/23 10:37:19;;;;;;;7.55;6.95;;;30.60;99.90;;;;;;5112271;28;20214;-76
2023/08/23 10:39:53;;;;;;;7.50;6.90;;;30.70;99.90;;;;;;5114268;28;20182;-76
2023/08/23 10:42:19;;;;;;;5.93;5.53;;;30.80;99.90;;;;;;5112891;28;20188;-77
2023/08/23 10:44:59;;;;;;;5.55;5.10;;;30.90;99.90;;;;;;5110901;28;20174;-76
2023/08/23 10:47:25;;;;;;;5.32;4.93;;;31.10;99.90;;;;;;5109445;28;20224;-77
2023/08/23 10:49:52;;;;;;;6.80;4.90;;;31.20;99.90;;;;;;5112339;28;20209;-76
2023/08/23 10:52:21;;;;;;;4.68;4.38;;;31.40;99.90;;;;;;5115954;28;20206;-79
2023/08/23 10:54:47;;;;;;;5.00;4.70;;;31.50;99.30;;;;;;5114381;28;20182;-76
2023/08/23 10:57:12;;;;;;;4.88;4.53;;;31.50;99.90;;;;;;5108212;28;20182;-77
2023/08/23 10:59:38;;;;;;;4.65;4.45;;;31.60;99.50;;;;;;5113803;28;20182;-76
2023/08/23 11:02:06;;;;;;;5.57;4.88;;;31.60;99.90;;;;;;5099378;28;20182;-77
2023/08/23 11:04:33;;;;;;;5.63;5.20;;;31.50;99.90;;;;;;5096607;28;20220;-76
2023/08/23 11:06:59;;;;;;;6.10;5.57;;;31.40;99.90;;;;;;5096188;28;20566;-75
2023/08/23 11:09:25;;;;;;;6.57;5.40;;;31.30;99.90;;;;;;5098025;28;20174;-79
2023/08/23 11:11:52;;;;;;;6.00;5.50;;;31.10;99.90;;;;;;5097618;28;20269;-76
2023/08/23 11:14:17;;;;;;;5.60;5.20;;;31.00;99.90;;;;;;5095712;28;20207;-76
2023/08/23 11:16:43;;;;;;;6.60;6.10;;;30.80;99.90;;;;;;5095258;28;20178;-77
2023/08/23 11:19:11;;;;;;;6.05;5.65;;;30.70;99.90;;;;;;5094688;28;20174;-77
2023/08/23 11:21:38;;;;;;;5.57;5.28;;;30.50;99.90;;;;;;5102592;28;20225;-74
2023/08/23 11:24:04;;;;;;;6.88;6.10;;;30.40;99.90;;;;;;5115565;28;20625;-77
2023/08/23 11:26:36;;;;;;;6.38;5.95;;;30.20;99.90;;;;;;5114133;28;20216;-76
2023/08/23 11:29:03;;;;;;;6.60;6.10;;;30.10;99.90;;;;;;5113890;28;20527;-77
2023/08/23 11:31:31;;;;;;;6.57;6.07;;;29.90;99.90;;;;;;5114552;28;20648;-78
2023/08/23 11:33:57;;;;;;;6.82;6.32;;;29.70;99.90;;;;;;5113802;28;20649;-75
2023/08/23 11:36:23;;;;;;;6.45;5.88;;;29.60;99.90;;;;;;5114481;28;20650;-77
2023/08/23 11:38:50;;;;;;;7.30;6.43;;;29.40;99.90;;;;;;5116698;28;20209;-75
2023/08/23 11:41:27;;;;;;;9.05;8.10;;;29.20;99.90;;;;;;5115565;28;20162;-77
2023/08/23 11:43:53;;;;;;;7.15;6.45;;;29.20;99.90;;;;;;5113604;28;20254;-75
2023/08/23 11:46:19;;;;;;;8.07;7.28;;;29.10;99.90;;;;;;5118518;28;20213;-77
2023/08/23 11:48:45;;;;;;;8.35;7.65;;;29.00;99.90;;;;;;5116247;28;20248;-76
2023/08/23 11:51:10;;;;;;;7.82;7.22;;;28.90;99.90;;;;;;5115898;28;20216;-77
2023/08/23 11:53:36;;;;;;;7.90;7.10;;;28.80;99.90;;;;;;5120742;28;20196;-77
2023/08/23 11:56:06;;;;;;;10.07;8.23;;;28.70;99.90;;;;;;5114987;28;20196;-75
2023/08/23 11:58:32;;;;;;;7.82;7.13;;;28.50;99.90;;;;;;5095521;28;20178;-76
2023/08/23 12:00:58;;;;;;;8.45;7.60;;;28.40;99.90;;;;;;5114738;28;20173;-81
2023/08/23 12:03:24;;;;;;;9.27;8.15;;;28.20;99.90;;;;;;5113448;28;20170;-78
2023/08/23 12:05:50;;;;;;;8.80;7.90;;;28.00;99.90;;;;;;5114067;28;20577;-76
2023/08/23 12:08:16;;;;;;;8.48;7.57;;;27.90;99.90;;;;;;5114408;28;20252;-77
2023/08/23 12:10:41;;;;;;;9.18;8.20;;;27.90;99.90;;;;;;5119219;28;20177;-79
2023/08/23 12:13:07;;;;;;;8.45;7.65;;;27.80;99.90;;;;;;5118217;28;20174;-77
2023/08/23 12:15:34;;;;;;;10.75;7.97;;;27.70;99.90;;;;;;5113475;28;20256;-76
2023/08/23 12:18:00;;;;;;;8.85;7.95;;;27.70;99.90;;;;;;5113480;28;20213;-76
2023/08/23 12:20:25;;;;;;;8.50;7.70;;;27.60;99.90;;;;;;5113361;28;20178;-77
2023/08/23 12:22:51;;;;;;;8.57;7.78;;;27.50;99.90;;;;;;5113079;28;20213;-77
2023/08/23 12:25:17;;;;;;;8.15;7.47;;;27.40;99.90;;;;;;5113027;28;20205;-76
2023/08/23 12:27:43;;;;;;;8.95;8.05;;;27.40;99.90;;;;;;5113375;28;20225;-77
2023/08/23 12:30:12;;;;;;;9.27;8.20;;;27.30;99.90;;;;;;5113251;28;20174;-77
2023/08/23 12:32:38;;;;;;;9.55;8.43;;;27.20;99.90;;;;;;5112957;28;20185;-78
2023/08/23 12:35:04;;;;;;;9.80;8.13;;;27.10;99.90;;;;;;5113151;28;20571;-77
2023/08/23 12:37:29;;;;;;;8.98;8.10;;;27.00;99.90;;;;;;5114465;28;20230;-77
2023/08/23 12:39:56;;;;;;;9.40;8.40;;;26.90;99.90;;;;;;5116404;28;20186;-77
2023/08/23 12:42:22;;;;;;;8.77;7.82;;;26.80;99.90;;;;;;5119221;28;20170;-76
2023/08/23 12:44:49;;;;;;;6.93;6.30;;;26.70;99.90;;;;;;5115526;28;20174;-77